Time;durP1;ratioP1;P1;durP2;ratioP2;P2;SDS_P1;SDS_P2;PMS_P1;PMS_P2;Temp;Humidity;BMP_temperature;BMP_pressure;BME280_temperature;BME280_humidity;BME280_pressure;Samples;Min_cycle;Max_cycle;Signal;HPM_P1;HPM_P2
2022/05/12 00:01:58;;;;;;;13.43;4.70;;;21.30;73.00;;;;;;5013344;28;20539;-66
2022/05/12 00:04:25;;;;;;;10.88;4.35;;;21.20;73.10;;;;;;5013339;28;20034;-62
2022/05/12 00:06:51;;;;;;;11.18;4.05;;;21.20;73.20;;;;;;5013285;28;20487;-66
2022/05/12 00:09:16;;;;;;;10.60;4.13;;;21.20;73.30;;;;;;5013196;28;20116;-62
2022/05/12 00:11:42;;;;;;;9.52;3.83;;;21.20;73.40;;;;;;5013153;28;20030;-66
2022/05/12 00:14:08;;;;;;;9.05;4.30;;;21.10;73.50;;;;;;5013092;28;20501;-65
2022/05/12 00:16:33;;;;;;;10.13;4.85;;;21.10;73.70;;;;;;5013380;28;20383;-65
2022/05/12 00:18:59;;;;;;;10.43;6.00;;;21.00;73.70;;;;;;5012812;28;20048;-66
2022/05/12 00:21:25;;;;;;;14.18;6.65;;;21.00;73.80;;;;;;5013249;28;20105;-65
2022/05/12 00:23:56;;;;;;;11.05;6.60;;;21.00;73.80;;;;;;5013082;28;20022;-65
2022/05/12 00:26:26;;;;;;;16.17;7.33;;;20.90;73.90;;;;;;5013051;28;20057;-66
2022/05/12 00:28:52;;;;;;;16.48;7.55;;;20.90;74.00;;;;;;5012493;28;20471;-60
2022/05/12 00:31:18;;;;;;;12.00;7.78;;;20.80;74.30;;;;;;5013007;28;20033;-65
2022/05/12 00:33:44;;;;;;;11.20;7.32;;;20.80;74.50;;;;;;5013210;28;20018;-65
2022/05/12 00:36:10;;;;;;;14.75;8.32;;;20.80;74.70;;;;;;5013208;28;20025;-66
2022/05/12 00:38:36;;;;;;;15.63;7.95;;;20.80;74.80;;;;;;5013204;28;20379;-66
2022/05/12 00:41:01;;;;;;;16.10;8.20;;;20.80;75.00;;;;;;5012875;28;20125;-66
2022/05/12 00:43:55;;;;;;;17.63;8.15;;;20.70;75.00;;;;;;5012728;28;20058;-66
2022/05/12 00:46:27;;;;;;;12.98;7.85;;;20.70;75.30;;;;;;5012992;28;20034;-60
2022/05/12 00:48:57;;;;;;;13.40;8.27;;;20.70;75.50;;;;;;5012796;28;20390;-65
2022/05/12 00:51:37;;;;;;;13.40;8.40;;;20.60;75.60;;;;;;5012974;28;20486;-65
2022/05/12 00:54:07;;;;;;;16.08;8.77;;;20.70;75.50;;;;;;5011586;28;20026;-66
2022/05/12 00:56:35;;;;;;;15.35;7.60;;;20.60;75.80;;;;;;5012801;28;20456;-62
2022/05/12 00:59:06;;;;;;;14.32;8.68;;;20.60;75.90;;;;;;5012423;28;20065;-64
2022/05/12 01:01:31;;;;;;;16.58;9.00;;;20.60;76.10;;;;;;5013033;28;20044;-64
2022/05/12 01:03:59;;;;;;;13.98;9.48;;;20.60;76.20;;;;;;5012871;28;20530;-65
2022/05/12 01:06:25;;;;;;;13.75;9.15;;;20.50;76.30;;;;;;5012699;28;20040;-66
2022/05/12 01:08:51;;;;;;;15.70;9.07;;;20.50;76.40;;;;;;5012615;28;20497;-66
2022/05/12 01:11:19;;;;;;;13.80;9.07;;;20.40;76.50;;;;;;5016018;28;20030;-64
2022/05/12 01:13:51;;;;;;;15.95;9.88;;;20.40;76.60;;;;;;5016006;28;20026;-66
2022/05/12 01:16:44;;;;;;;15.95;10.00;;;20.40;76.80;;;;;;5016125;28;20034;-61
2022/05/12 01:19:16;;;;;;;14.02;9.73;;;20.40;76.90;;;;;;5016552;28;20104;-60
2022/05/12 01:21:42;;;;;;;18.10;10.65;;;20.40;76.90;;;;;;5016249;28;20109;-66
2022/05/12 01:24:08;;;;;;;15.93;9.35;;;20.40;77.00;;;;;;5016217;28;20403;-62
2022/05/12 01:26:34;;;;;;;16.88;9.70;;;20.30;77.00;;;;;;5015561;28;20592;-61
2022/05/12 01:29:00;;;;;;;18.42;10.20;;;20.30;77.10;;;;;;5016040;28;20022;-61
2022/05/12 01:31:26;;;;;;;17.83;9.13;;;20.30;77.30;;;;;;5016071;28;20549;-61
2022/05/12 01:33:52;;;;;;;14.15;9.43;;;20.30;77.20;;;;;;5016074;28;20018;-60
2022/05/12 01:36:20;;;;;;;13.77;8.60;;;20.30;77.40;;;;;;5015704;28;20092;-60
2022/05/12 01:38:46;;;;;;;16.70;8.60;;;20.30;77.30;;;;;;5015963;28;20030;-62
2022/05/12 01:41:12;;;;;;;16.30;9.38;;;20.30;77.20;;;;;;5015157;28;20475;-63
2022/05/12 01:43:37;;;;;;;14.18;7.30;;;20.30;77.50;;;;;;5015611;28;20022;-64
2022/05/12 01:46:03;;;;;;;13.60;7.07;;;20.30;77.30;;;;;;5015421;28;20034;-61
2022/05/12 01:48:28;;;;;;;17.30;7.55;;;20.30;77.30;;;;;;5015775;28;20083;-62
2022/05/12 01:50:55;;;;;;;13.70;7.60;;;20.30;77.00;;;;;;5015799;28;20026;-66
2022/05/12 01:53:20;;;;;;;19.42;8.55;;;20.30;77.10;;;;;;5015672;28;20567;-65
2022/05/12 01:55:49;;;;;;;18.20;8.00;;;20.20;77.10;;;;;;5015190;28;20069;-62
2022/05/12 01:58:17;;;;;;;16.58;7.65;;;20.10;77.40;;;;;;5015267;28;20108;-62
2022/05/12 02:00:42;;;;;;;14.50;8.38;;;20.10;77.40;;;;;;5015233;28;20117;-63
2022/05/12 02:03:08;;;;;;;15.80;7.65;;;20.10;77.50;;;;;;5015418;28;20102;-61
2022/05/12 02:05:36;;;;;;;17.17;7.97;;;20.00;77.60;;;;;;5015433;28;20116;-65
2022/05/12 02:08:03;;;;;;;15.15;7.82;;;20.00;77.70;;;;;;5015355;28;20022;-66
2022/05/12 02:10:33;;;;;;;18.23;8.30;;;20.00;77.80;;;;;;5015048;28;20387;-65
2022/05/12 02:12:58;;;;;;;17.27;8.85;;;20.00;78.10;;;;;;5015227;28;20230;-65
2022/05/12 02:15:25;;;;;;;17.65;8.48;;;19.90;78.10;;;;;;5015119;28;20404;-65
2022/05/12 02:17:51;;;;;;;18.58;8.23;;;19.90;78.20;;;;;;5015090;28;20022;-65
2022/05/12 02:20:19;;;;;;;16.55;8.57;;;19.90;78.40;;;;;;5015115;28;20026;-66
2022/05/12 02:22:45;;;;;;;16.67;8.00;;;19.90;78.30;;;;;;5014037;28;20029;-63
2022/05/12 02:25:11;;;;;;;15.20;7.50;;;19.80;78.30;;;;;;5014385;28;20025;-60
2022/05/12 02:27:42;;;;;;;15.80;8.20;;;19.80;78.40;;;;;;5014778;28;20092;-63
2022/05/12 02:30:09;;;;;;;17.58;7.32;;;19.80;78.40;;;;;;5014970;28;20022;-66
2022/05/12 02:32:35;;;;;;;16.13;7.43;;;19.80;78.30;;;;;;5014629;28;20029;-66
2022/05/12 02:35:00;;;;;;;15.77;7.28;;;19.80;78.40;;;;;;5014794;28;20030;-64
2022/05/12 02:37:27;;;;;;;23.02;9.05;;;19.80;78.20;;;;;;5014517;28;20045;-66
2022/05/12 02:39:53;;;;;;;16.77;6.78;;;19.70;78.30;;;;;;5014681;28;20109;-65
2022/05/12 02:42:18;;;;;;;16.38;7.18;;;19.70;78.30;;;;;;5014624;28;20184;-63
2022/05/12 02:44:44;;;;;;;19.00;7.57;;;19.70;78.30;;;;;;5014430;28;20050;-61
2022/05/12 02:47:10;;;;;;;17.88;7.18;;;19.70;78.30;;;;;;5011286;28;20029;-66
2022/05/12 02:49:36;;;;;;;15.02;6.65;;;19.70;78.20;;;;;;5010787;28;20062;-66
2022/05/12 02:52:03;;;;;;;16.58;7.45;;;19.70;78.20;;;;;;5011421;28;20029;-64
2022/05/12 02:54:28;;;;;;;17.90;8.13;;;19.60;78.20;;;;;;5013924;28;20021;-65
2022/05/12 02:56:55;;;;;;;14.98;7.28;;;19.60;78.20;;;;;;5014359;28;20034;-61
2022/05/12 02:59:22;;;;;;;14.55;7.43;;;19.50;78.30;;;;;;5013964;28;20156;-65
2022/05/12 03:01:48;;;;;;;14.63;6.90;;;19.60;78.20;;;;;;5014297;28;20053;-61
2022/05/12 03:04:13;;;;;;;20.02;7.32;;;19.50;78.10;;;;;;5014242;28;20061;-60
2022/05/12 03:06:39;;;;;;;18.08;7.55;;;19.50;78.20;;;;;;5014240;28;20044;-61
2022/05/12 03:09:05;;;;;;;16.33;7.20;;;19.50;78.20;;;;;;5013585;28;20029;-63
2022/05/12 03:11:30;;;;;;;19.75;7.93;;;19.40;78.20;;;;;;5014151;28;20026;-64
2022/05/12 03:13:56;;;;;;;16.10;7.30;;;19.40;78.30;;;;;;5014064;28;20395;-65
2022/05/12 03:16:23;;;;;;;16.30;7.22;;;19.40;78.80;;;;;;5013972;28;20479;-65
2022/05/12 03:18:51;;;;;;;19.70;7.82;;;19.40;78.30;;;;;;5014092;28;20084;-60
2022/05/12 03:21:17;;;;;;;16.67;6.88;;;19.50;76.80;;;;;;5014002;28;20033;-61
2022/05/12 03:23:43;;;;;;;16.52;6.10;;;19.60;75.80;;;;;;5013653;28;20101;-61
2022/05/12 03:26:09;;;;;;;14.50;6.88;;;19.60;75.30;;;;;;5013682;28;20124;-66
2022/05/12 03:28:36;;;;;;;13.60;6.15;;;19.70;75.10;;;;;;5014025;28;20041;-60
2022/05/12 03:31:02;;;;;;;14.70;6.75;;;19.70;75.00;;;;;;5013874;28;20022;-67
2022/05/12 03:33:28;;;;;;;14.07;6.30;;;19.70;74.80;;;;;;5013691;28;20025;-67
2022/05/12 03:35:53;;;;;;;16.02;6.60;;;19.70;74.80;;;;;;5013814;28;20364;-67
2022/05/12 03:38:20;;;;;;;14.07;6.63;;;19.70;74.70;;;;;;5013391;28;20109;-66
2022/05/12 03:40:46;;;;;;;16.10;6.50;;;19.70;74.60;;;;;;5013658;28;20025;-66
2022/05/12 03:44:46;;;;;;;15.65;7.00;;;19.70;74.50;;;;;;5013590;28;20018;-67
2022/05/12 03:45:58;;;;;;;12.85;6.68;;;19.70;74.60;;;;;;5013359;28;20045;-63
2022/05/12 03:48:23;;;;;;;14.60;6.15;;;19.70;74.40;;;;;;5013542;28;20021;-66
2022/05/12 03:50:49;;;;;;;14.55;6.95;;;19.70;74.50;;;;;;5013633;28;20056;-63
2022/05/12 03:53:14;;;;;;;16.77;6.47;;;19.70;74.60;;;;;;5013016;28;20017;-67
2022/05/12 03:55:40;;;;;;;11.43;6.07;;;19.60;74.50;;;;;;5013493;28;20088;-67
2022/05/12 03:58:05;;;;;;;12.68;6.75;;;19.60;74.50;;;;;;5013259;28;20033;-66
2022/05/12 04:00:32;;;;;;;14.48;6.07;;;19.60;74.50;;;;;;5013260;28;20026;-61
2022/05/12 04:02:58;;;;;;;15.38;6.63;;;19.60;74.60;;;;;;5013521;28;20024;-65
2022/05/12 04:05:24;;;;;;;16.52;6.65;;;19.50;74.40;;;;;;5013235;28;20156;-64
2022/05/12 04:07:51;;;;;;;13.55;5.55;;;19.50;74.50;;;;;;5013046;28;20014;-67
2022/05/12 04:10:17;;;;;;;18.75;6.82;;;19.50;74.60;;;;;;5013466;28;20018;-66
2022/05/12 04:12:43;;;;;;;15.93;6.07;;;19.50;74.60;;;;;;5013274;28;20022;-63
2022/05/12 04:15:10;;;;;;;11.95;5.68;;;19.50;74.60;;;;;;5013245;28;20037;-65
2022/05/12 04:17:35;;;;;;;13.95;5.70;;;19.50;74.60;;;;;;5013153;28;20479;-59
2022/05/12 04:20:06;;;;;;;16.92;6.28;;;19.40;74.70;;;;;;5013360;28;20030;-59
2022/05/12 04:22:33;;;;;;;17.13;6.25;;;19.40;74.70;;;;;;5012978;28;20022;-60
2022/05/12 04:24:58;;;;;;;11.50;5.88;;;19.40;74.70;;;;;;5013162;28;20223;-62
2022/05/12 04:27:24;;;;;;;14.77;6.13;;;19.40;74.80;;;;;;5013100;28;20390;-63
2022/05/12 04:29:49;;;;;;;15.75;7.00;;;19.30;74.80;;;;;;5013025;28;20479;-66
2022/05/12 04:32:15;;;;;;;13.30;6.05;;;19.40;74.90;;;;;;5013247;28;20096;-66
2022/05/12 04:37:28;;;;;;;13.75;6.07;;;19.30;75.00;;;;;;5013157;28;20041;-60
2022/05/12 04:39:54;;;;;;;13.15;5.60;;;19.30;75.00;;;;;;5013140;28;20076;-64
2022/05/12 04:42:20;;;;;;;12.35;5.90;;;19.30;75.20;;;;;;5013101;28;20137;-61
2022/05/12 04:44:46;;;;;;;14.32;5.88;;;19.20;75.20;;;;;;5013916;28;20100;-61
2022/05/12 04:47:11;;;;;;;14.32;5.70;;;19.20;75.30;;;;;;5016740;28;20072;-61
2022/05/12 04:49:37;;;;;;;15.95;6.50;;;19.30;76.00;;;;;;5016405;28;20030;-60
2022/05/12 04:52:03;;;;;;;15.30;6.43;;;19.20;75.40;;;;;;5016932;28;20033;-60
2022/05/12 04:54:29;;;;;;;14.75;6.75;;;19.20;75.40;;;;;;5016548;28;20535;-65
2022/05/12 04:56:56;;;;;;;13.52;5.80;;;19.20;75.50;;;;;;5016491;28;20530;-64
2022/05/12 04:59:22;;;;;;;11.77;6.00;;;19.20;75.70;;;;;;5016761;28;20030;-59
2022/05/12 05:01:48;;;;;;;16.33;6.15;;;19.20;75.70;;;;;;5013684;28;20030;-60
2022/05/12 05:04:13;;;;;;;14.93;6.45;;;19.10;75.80;;;;;;5014342;28;20080;-60
2022/05/12 05:06:39;;;;;;;16.83;6.40;;;19.10;75.80;;;;;;5014697;28;20522;-59
2022/05/12 05:09:05;;;;;;;13.63;5.78;;;19.10;75.80;;;;;;5016366;28;20464;-66
2022/05/12 05:11:33;;;;;;;14.93;6.50;;;19.10;76.00;;;;;;5016230;28;20038;-66
2022/05/12 05:13:59;;;;;;;12.40;6.00;;;19.10;76.10;;;;;;5016474;28;20052;-59
2022/05/12 05:16:25;;;;;;;14.57;5.70;;;19.10;76.10;;;;;;5016159;28;20472;-66
2022/05/12 05:18:50;;;;;;;15.40;6.15;;;19.10;76.20;;;;;;5015957;28;20025;-66
2022/05/12 05:21:16;;;;;;;13.23;5.55;;;19.00;76.30;;;;;;5016295;28;20071;-66
2022/05/12 05:23:41;;;;;;;14.20;5.80;;;19.10;76.20;;;;;;5016227;28;20028;-60
2022/05/12 05:26:08;;;;;;;11.63;5.82;;;19.10;76.40;;;;;;5015694;28;20116;-65
2022/05/12 05:28:35;;;;;;;11.73;5.47;;;19.10;76.40;;;;;;5015999;28;20502;-60
2022/05/12 05:31:00;;;;;;;13.43;5.65;;;19.10;76.60;;;;;;5012126;28;20494;-59
2022/05/12 05:33:26;;;;;;;15.60;6.50;;;19.00;76.50;;;;;;5015512;28;20018;-60
2022/05/12 05:35:52;;;;;;;11.27;4.75;;;19.00;76.70;;;;;;5011179;28;20029;-62
2022/05/12 05:38:18;;;;;;;14.38;5.97;;;19.00;76.50;;;;;;5014791;28;20415;-62
2022/05/12 05:40:43;;;;;;;10.57;4.63;;;19.00;76.90;;;;;;5013746;28;20052;-62
2022/05/12 05:43:09;;;;;;;12.88;5.55;;;19.00;76.80;;;;;;5015457;28;20376;-60
2022/05/12 05:45:35;;;;;;;14.00;5.28;;;19.00;76.90;;;;;;5015456;28;20396;-64
2022/05/12 05:48:04;;;;;;;13.15;6.00;;;19.00;77.40;;;;;;5010985;28;20018;-69
2022/05/12 05:53:24;;;;;;;9.93;4.75;;;19.10;80.30;;;;;;5014423;28;20044;-66
2022/05/12 05:55:50;;;;;;;10.30;3.50;;;19.10;79.60;;;;;;5013539;28;20025;-66
2022/05/12 05:58:16;;;;;;;12.60;3.70;;;19.10;78.90;;;;;;5012415;28;20037;-67
2022/05/12 06:00:43;;;;;;;17.95;5.45;;;19.10;78.80;;;;;;5011998;28;20030;-64
2022/05/12 06:03:10;;;;;;;13.90;4.78;;;19.10;78.50;;;;;;5011378;28;20060;-66
2022/05/12 06:05:36;;;;;;;11.82;4.57;;;19.20;78.60;;;;;;5017125;28;20026;-65
2022/05/12 06:08:02;;;;;;;10.35;3.60;;;19.20;78.60;;;;;;5009387;28;20543;-67
2022/05/12 06:10:28;;;;;;;12.23;4.50;;;19.20;78.30;;;;;;5003406;28;20077;-63
2022/05/12 06:12:54;;;;;;;13.40;5.13;;;19.30;78.60;;;;;;5005733;28;20030;-68
2022/05/12 06:15:20;;;;;;;14.25;5.28;;;19.40;78.90;;;;;;4994480;28;20022;-66
2022/05/12 06:17:46;;;;;;;14.38;4.70;;;19.40;79.20;;;;;;4999904;28;20033;-67
2022/05/12 06:20:12;;;;;;;15.50;5.70;;;19.40;78.60;;;;;;4993601;28;20018;-66
2022/05/12 06:22:38;;;;;;;15.60;5.75;;;19.50;78.30;;;;;;5013437;28;20479;-67
2022/05/12 06:25:07;;;;;;;11.23;5.15;;;19.50;78.00;;;;;;5008146;28;20285;-66
2022/05/12 06:27:34;;;;;;;10.93;4.28;;;19.50;77.80;;;;;;5009094;28;20443;-62
2022/05/12 06:29:59;;;;;;;13.23;4.88;;;19.60;77.70;;;;;;5014561;28;20476;-67
2022/05/12 06:32:26;;;;;;;13.52;3.72;;;19.60;77.50;;;;;;5013731;28;20034;-67
2022/05/12 06:34:52;;;;;;;10.75;4.10;;;19.70;77.40;;;;;;5013230;28;20475;-66
2022/05/12 06:37:19;;;;;;;9.00;3.70;;;19.70;77.20;;;;;;5027659;28;20021;-67
2022/05/12 06:39:45;;;;;;;11.70;3.20;;;19.70;77.10;;;;;;5014237;28;20032;-64
2022/05/12 06:42:12;;;;;;;11.60;3.45;;;19.80;77.00;;;;;;5009133;28;20046;-65
2022/05/12 06:44:39;;;;;;;13.75;6.13;;;19.80;76.90;;;;;;4995083;28;20076;-62
2022/05/12 06:47:09;;;;;;;21.52;6.82;;;19.80;77.30;;;;;;5008809;28;20472;-61
2022/05/12 06:49:35;;;;;;;13.73;6.28;;;19.90;77.10;;;;;;4997848;28;20423;-61
2022/05/12 06:52:03;;;;;;;17.33;6.57;;;19.90;77.00;;;;;;5013985;28;20029;-60
2022/05/12 06:54:29;;;;;;;10.95;4.93;;;20.00;77.00;;;;;;5011686;28;20038;-61
2022/05/12 06:56:55;;;;;;;15.48;5.00;;;20.00;76.80;;;;;;5013869;28;20361;-63
2022/05/12 06:59:20;;;;;;;10.20;4.50;;;20.00;76.50;;;;;;5014152;28;20034;-66
2022/05/12 07:01:46;;;;;;;16.35;5.40;;;20.00;76.70;;;;;;4990596;28;20093;-60
2022/05/12 07:04:11;;;;;;;14.57;5.75;;;20.00;76.50;;;;;;4992595;28;20081;-61
2022/05/12 07:06:37;;;;;;;12.52;4.78;;;20.10;76.50;;;;;;5012599;28;20030;-66
2022/05/12 07:09:02;;;;;;;10.60;4.55;;;20.10;76.20;;;;;;5012905;28;20034;-60
2022/05/12 07:11:28;;;;;;;14.15;4.75;;;20.10;76.10;;;;;;5012890;28;20486;-61
2022/05/12 07:13:53;;;;;;;12.38;4.72;;;20.20;75.70;;;;;;5014000;28;20018;-60
2022/05/12 07:16:20;;;;;;;12.50;4.55;;;20.20;75.70;;;;;;5012772;28;20037;-66
2022/05/12 07:18:46;;;;;;;13.25;4.70;;;20.20;75.60;;;;;;5010986;28;20033;-64
2022/05/12 07:26:42;;;;;;;7.70;4.68;;;20.30;73.90;;;;;;5011743;28;20104;-66
2022/05/12 07:29:14;;;;;;;13.77;5.55;;;20.40;72.90;;;;;;5013511;28;20022;-66
2022/05/12 07:31:39;;;;;;;11.45;4.10;;;20.40;73.40;;;;;;5011451;28;20108;-61
2022/05/12 07:34:05;;;;;;;11.48;5.80;;;20.50;73.60;;;;;;5011533;28;20462;-66
2022/05/12 07:36:37;;;;;;;13.07;5.50;;;20.50;73.40;;;;;;5011821;28;20471;-64
2022/05/12 07:39:05;;;;;;;14.27;5.43;;;20.50;73.00;;;;;;5007600;28;20444;-60
2022/05/12 07:41:32;;;;;;;10.82;4.55;;;20.50;71.60;;;;;;5012476;28;20049;-64
2022/05/12 07:43:58;;;;;;;12.98;6.43;;;20.60;71.60;;;;;;5010270;28;20065;-67
2022/05/12 07:46:29;;;;;;;10.30;5.05;;;20.60;70.00;;;;;;5012150;28;20492;-66
2022/05/12 07:48:55;;;;;;;14.38;4.22;;;20.70;70.30;;;;;;5011779;28;20034;-65
2022/05/12 07:51:21;;;;;;;8.40;3.28;;;20.70;70.80;;;;;;5013480;28;20467;-66
2022/05/12 07:53:48;;;;;;;9.13;2.53;;;20.80;70.70;;;;;;5012291;28;20030;-66
2022/05/12 07:56:16;;;;;;;5.10;2.10;;;20.70;70.20;;;;;;5011997;28;20478;-65
2022/05/12 07:58:43;;;;;;;7.10;2.45;;;20.80;68.40;;;;;;5012872;28;20034;-65
2022/05/12 08:01:11;;;;;;;8.20;2.67;;;20.80;68.30;;;;;;5012716;28;20030;-63
2022/05/12 08:03:37;;;;;;;6.32;2.30;;;20.90;69.10;;;;;;5011592;28;20030;-65
2022/05/12 08:06:03;;;;;;;7.68;2.13;;;20.90;68.90;;;;;;5013251;28;20091;-65
2022/05/12 08:08:29;;;;;;;7.22;1.80;;;20.90;68.00;;;;;;5018766;28;20021;-63
2022/05/12 08:10:54;;;;;;;5.57;1.70;;;21.00;68.50;;;;;;5009072;28;20038;-65
2022/05/12 08:13:21;;;;;;;4.20;1.80;;;21.00;67.80;;;;;;5011706;28;20026;-65
2022/05/12 08:15:49;;;;;;;5.55;1.77;;;21.00;67.20;;;;;;5012126;28;20022;-65
2022/05/12 08:18:21;;;;;;;5.50;1.60;;;21.00;66.40;;;;;;5013266;28;20018;-63
2022/05/12 08:20:47;;;;;;;9.18;1.85;;;21.00;66.00;;;;;;5009106;28;20046;-66
2022/05/12 08:23:14;;;;;;;7.03;2.03;;;21.00;65.20;;;;;;5016222;28;20030;-66
2022/05/12 08:25:41;;;;;;;6.85;2.00;;;21.00;64.40;;;;;;5015696;28;20032;-65
2022/05/12 08:28:07;;;;;;;7.70;2.30;;;21.00;64.40;;;;;;5014501;28;20365;-63
2022/05/12 08:30:33;;;;;;;5.13;1.95;;;21.00;64.00;;;;;;5015489;28;20535;-64
2022/05/12 08:32:59;;;;;;;14.73;2.13;;;21.00;63.80;;;;;;5013151;28;20033;-65
2022/05/12 08:35:26;;;;;;;5.10;1.50;;;21.00;63.00;;;;;;5013832;28;20032;-62
2022/05/12 08:37:51;;;;;;;6.18;1.60;;;21.10;61.80;;;;;;5015016;28;20076;-62
2022/05/12 08:40:30;;;;;;;2.97;1.42;;;21.10;61.60;;;;;;5014862;28;20411;-62
2022/05/12 08:43:05;;;;;;;3.67;1.50;;;21.10;61.50;;;;;;5015952;28;20030;-62
2022/05/12 08:45:31;;;;;;;7.05;2.00;;;21.10;61.30;;;;;;5016526;28;20034;-63
2022/05/12 08:47:58;;;;;;;7.05;1.50;;;21.10;61.20;;;;;;5011143;28;20383;-63
2022/05/12 08:50:27;;;;;;;6.85;1.30;;;21.10;60.90;;;;;;5004462;28;20375;-63
2022/05/12 08:52:57;;;;;;;4.35;1.38;;;21.10;60.90;;;;;;4996890;28;20030;-63
2022/05/12 08:55:46;;;;;;;5.50;1.42;;;21.10;61.10;;;;;;4996480;28;20023;-62
2022/05/12 08:58:25;;;;;;;4.30;1.00;;;21.20;61.90;;;;;;4997270;28;20038;-63
2022/05/12 09:01:25;;;;;;;6.63;1.27;;;21.20;60.90;;;;;;4996925;28;20097;-64
2022/05/12 09:04:30;;;;;;;5.63;1.13;;;21.20;61.40;;;;;;5006482;28;20033;-63
2022/05/12 09:07:14;;;;;;;6.95;1.50;;;21.30;61.50;;;;;;5016574;28;20042;-64
2022/05/12 09:09:44;;;;;;;3.85;0.93;;;21.30;61.00;;;;;;5016367;28;20021;-64
2022/05/12 09:12:26;;;;;;;3.75;1.00;;;21.30;60.00;;;;;;5016058;28;20037;-62
2022/05/12 09:15:00;;;;;;;4.57;1.08;;;21.40;60.20;;;;;;5015809;28;20140;-63
2022/05/12 09:17:42;;;;;;;4.32;0.70;;;21.40;59.30;;;;;;5016261;28;20379;-63
2022/05/12 09:20:10;;;;;;;3.90;1.55;;;21.20;59.20;;;;;;5016221;28;20460;-64
2022/05/12 09:22:37;;;;;;;6.13;1.40;;;21.20;58.40;;;;;;5014737;28;20387;-64
2022/05/12 09:25:06;;;;;;;5.40;0.80;;;21.30;59.30;;;;;;5015696;28;20097;-63
2022/05/12 09:27:36;;;;;;;5.60;1.00;;;21.30;59.20;;;;;;5015739;28;20124;-62
2022/05/12 09:30:06;;;;;;;4.47;0.98;;;21.30;59.80;;;;;;5015232;28;20467;-62
2022/05/12 09:32:35;;;;;;;3.97;1.40;;;21.40;58.80;;;;;;5015776;28;20026;-62
2022/05/12 09:35:21;;;;;;;3.60;1.13;;;21.40;58.30;;;;;;5015531;28;20076;-62
2022/05/12 09:37:49;;;;;;;5.82;1.17;;;21.30;57.50;;;;;;5015655;28;20030;-62
2022/05/12 09:40:22;;;;;;;5.47;0.85;;;21.30;58.20;;;;;;5015509;28;20022;-61
2022/05/12 09:42:56;;;;;;;4.57;0.90;;;21.40;58.00;;;;;;5015888;28;20030;-62
2022/05/12 09:45:21;;;;;;;3.05;0.90;;;21.30;58.20;;;;;;5015501;28;20463;-63
2022/05/12 09:47:47;;;;;;;3.67;1.05;;;21.40;58.40;;;;;;5015466;28;20021;-61
2022/05/12 09:50:32;;;;;;;3.38;1.00;;;21.40;58.50;;;;;;5015674;28;20018;-62
2022/05/12 09:53:03;;;;;;;4.53;1.08;;;21.40;57.50;;;;;;5015690;28;20010;-61
2022/05/12 09:55:38;;;;;;;8.05;1.10;;;21.40;55.70;;;;;;5015225;28;20026;-61
2022/05/12 09:58:32;;;;;;;5.30;0.75;;;21.40;58.40;;;;;;5015372;28;20081;-63
2022/05/12 10:01:16;;;;;;;4.07;1.00;;;21.50;58.70;;;;;;5015120;28;20026;-66
2022/05/12 10:09:18;;;;;;;4.45;1.00;;;21.60;58.70;;;;;;5014884;28;20083;-62
2022/05/12 10:12:14;;;;;;;7.88;1.05;;;21.60;58.80;;;;;;5015133;28;20084;-64
2022/05/12 10:14:46;;;;;;;8.63;1.48;;;21.60;58.90;;;;;;5014816;28;20042;-64
2022/05/12 10:17:41;;;;;;;14.10;1.25;;;21.60;58.80;;;;;;5013591;28;20095;-65
2022/05/12 10:20:13;;;;;;;7.00;1.10;;;21.60;59.40;;;;;;5015182;28;20029;-65
2022/05/12 10:22:44;;;;;;;7.88;1.00;;;21.70;59.10;;;;;;5014959;28;20029;-64
2022/05/12 10:25:56;;;;;;;6.40;1.15;;;21.70;58.80;;;;;;5014849;28;20095;-64
2022/05/12 10:28:48;;;;;;;7.47;1.25;;;21.70;59.10;;;;;;5014054;28;20038;-65
2022/05/12 10:31:27;;;;;;;6.07;1.30;;;21.70;59.00;;;;;;5014259;28;20400;-64
2022/05/12 10:34:14;;;;;;;5.60;1.30;;;21.80;59.30;;;;;;5014750;28;20030;-65
2022/05/12 10:36:47;;;;;;;6.05;1.10;;;21.80;59.20;;;;;;5014341;28;20041;-65
2022/05/12 10:39:24;;;;;;;6.60;1.20;;;21.80;59.10;;;;;;5014072;28;20448;-64
2022/05/12 10:42:22;;;;;;;8.68;1.35;;;21.90;59.40;;;;;;5013373;28;20041;-64
2022/05/12 10:45:04;;;;;;;5.45;2.33;;;21.80;59.30;;;;;;5012526;28;20049;-64
2022/05/12 10:47:54;;;;;;;8.27;1.05;;;21.80;59.40;;;;;;5002533;28;20044;-62
2022/05/12 10:50:27;;;;;;;8.23;1.33;;;21.80;59.30;;;;;;5017048;28;20026;-65
2022/05/12 10:53:18;;;;;;;5.40;1.20;;;21.90;58.90;;;;;;5014131;28;20031;-65
2022/05/12 10:55:49;;;;;;;5.60;1.50;;;21.90;58.90;;;;;;5011367;28;20501;-65
2022/05/12 10:58:33;;;;;;;5.77;1.20;;;21.90;59.20;;;;;;5011832;28;20044;-67
2022/05/12 11:01:13;;;;;;;6.35;1.05;;;21.90;58.70;;;;;;5012985;28;20112;-65
2022/05/12 11:03:59;;;;;;;2.72;1.00;;;21.90;59.50;;;;;;5009528;28;20033;-65
2022/05/12 11:06:35;;;;;;;5.03;0.80;;;22.00;59.60;;;;;;5013748;28;20134;-65
2022/05/12 11:09:15;;;;;;;4.88;1.48;;;22.00;59.00;;;;;;5013808;28;20018;-64
2022/05/12 11:11:49;;;;;;;5.25;0.80;;;21.90;59.00;;;;;;5009456;28;20033;-65
2022/05/12 11:14:30;;;;;;;4.82;0.80;;;22.00;58.40;;;;;;5010173;28;20076;-64
2022/05/12 11:17:17;;;;;;;4.15;0.95;;;22.00;58.50;;;;;;5013532;28;20028;-67
2022/05/12 11:19:49;;;;;;;5.20;1.73;;;22.00;58.50;;;;;;5013619;28;20061;-65
2022/05/12 11:22:34;;;;;;;5.47;0.88;;;22.00;58.20;;;;;;5013700;28;20072;-65
2022/05/12 11:25:08;;;;;;;6.47;1.35;;;22.00;57.70;;;;;;5001130;28;20391;-64
2022/05/12 11:29:41;;;;;;;7.82;1.10;;;22.10;57.20;;;;;;5013178;28;20093;-64
2022/05/12 11:30:45;;;;;;;4.43;0.90;;;22.10;57.50;;;;;;5013678;28;20046;-65
2022/05/12 11:33:31;;;;;;;4.25;0.88;;;22.10;56.90;;;;;;5013465;28;20034;-65
2022/05/12 11:35:57;;;;;;;4.10;0.90;;;22.10;57.10;;;;;;5003241;28;20534;-66
2022/05/12 11:38:44;;;;;;;8.48;1.40;;;22.10;56.10;;;;;;5013296;28;20034;-65
2022/05/12 11:41:30;;;;;;;5.47;1.30;;;22.10;56.60;;;;;;5011499;28;20057;-65
2022/05/12 11:44:39;;;;;;;4.25;0.77;;;22.20;55.90;;;;;;5011006;28;20034;-63
2022/05/12 11:47:31;;;;;;;4.20;1.02;;;22.10;56.70;;;;;;5009604;28;20041;-65
2022/05/12 11:50:15;;;;;;;;;;;22.10;56.80;;;;;;5011294;28;20542;-61
2022/05/12 11:53:14;;;;;;;5.47;1.30;;;22.10;57.30;;;;;;5011539;28;20444;-68
2022/05/12 11:56:05;;;;;;;4.97;0.65;;;22.10;56.60;;;;;;5012145;28;20375;-65
2022/05/12 11:58:41;;;;;;;5.15;1.10;;;22.10;57.20;;;;;;5001080;28;20123;-65
2022/05/12 12:01:13;;;;;;;5.57;0.98;;;22.10;56.50;;;;;;5010692;28;20030;-67
2022/05/12 12:04:05;;;;;;;3.75;1.08;;;22.10;56.00;;;;;;5010969;28;20029;-63
2022/05/12 12:06:40;;;;;;;4.75;1.17;;;22.20;56.90;;;;;;5007910;28;20053;-67
2022/05/12 12:09:27;;;;;;;4.65;1.25;;;22.20;56.00;;;;;;5022000;28;20033;-65
2022/05/12 12:11:53;;;;;;;2.92;0.77;;;22.20;56.30;;;;;;5012866;28;20025;-62
2022/05/12 12:14:46;;;;;;;4.68;1.05;;;22.20;56.00;;;;;;5012596;28;20022;-63
2022/05/12 12:17:28;;;;;;;8.07;1.55;;;22.20;56.80;;;;;;5013052;28;20100;-65
2022/05/12 12:19:57;;;;;;;5.20;0.88;;;22.20;56.50;;;;;;5011246;28;20131;-65
2022/05/12 12:22:25;;;;;;;9.00;1.30;;;22.20;56.50;;;;;;5007806;28;20192;-64
2022/05/12 12:25:04;;;;;;;9.32;1.38;;;22.20;56.50;;;;;;5011539;28;20080;-62
2022/05/12 12:27:44;;;;;;;8.32;1.48;;;22.20;57.50;;;;;;5010397;28;20100;-65
2022/05/12 12:30:37;;;;;;;6.90;1.20;;;22.20;57.10;;;;;;5011259;28;20041;-61
2022/05/12 12:33:29;;;;;;;5.43;1.08;;;22.30;57.10;;;;;;5009421;28;20391;-64
2022/05/12 12:36:16;;;;;;;4.47;1.30;;;22.30;56.40;;;;;;4992793;28;20041;-63
2022/05/12 12:38:44;;;;;;;4.80;1.20;;;22.30;56.30;;;;;;5009888;28;20464;-66
2022/05/12 12:41:11;;;;;;;9.23;1.30;;;22.30;55.80;;;;;;5010713;28;20422;-65
2022/05/12 12:43:42;;;;;;;3.25;1.17;;;22.40;55.70;;;;;;5010644;28;20041;-63
2022/05/12 12:46:36;;;;;;;5.13;0.88;;;22.40;56.70;;;;;;5010885;28;20030;-62
2022/05/12 12:49:08;;;;;;;3.60;1.02;;;22.40;57.10;;;;;;5010472;28;20049;-64
2022/05/12 12:51:37;;;;;;;3.33;0.98;;;22.40;56.70;;;;;;5010394;28;20033;-67
2022/05/12 12:57:06;;;;;;;8.15;1.55;;;22.40;56.10;;;;;;5015034;28;20114;-65
2022/05/12 12:59:35;;;;;;;4.20;1.20;;;22.40;57.90;;;;;;5011104;28;20034;-64
2022/05/12 13:02:01;;;;;;;6.38;1.23;;;22.40;57.40;;;;;;5010208;28;20355;-66
2022/05/12 13:04:29;;;;;;;4.85;0.80;;;22.40;58.10;;;;;;5021679;28;20025;-64
2022/05/12 13:07:07;;;;;;;4.68;0.75;;;22.40;58.30;;;;;;5029909;28;20088;-66
2022/05/12 13:09:37;;;;;;;5.95;1.08;;;22.50;58.80;;;;;;5014826;28;20022;-64
2022/05/12 13:12:18;;;;;;;2.33;0.70;;;22.50;57.70;;;;;;5021375;28;20132;-63
2022/05/12 13:14:46;;;;;;;2.97;0.93;;;22.50;58.30;;;;;;5028108;28;20010;-62
2022/05/12 13:17:30;;;;;;;5.30;0.90;;;22.50;58.60;;;;;;5013278;28;20018;-61
2022/05/12 13:19:58;;;;;;;4.65;0.77;;;22.50;59.00;;;;;;5004716;28;20482;-62